Branch, Minnesota
Current Conditions -  °F | °C
As of 8:15 AM on Saturday 25 Oct 2014 (Local Time) from KROS Reporting Station
Scattered Clouds Scattered Clouds  
Wind Chill: 41°   Ceiling: Unl
Heat Index: 44°   Visibility: 10mi
Dew Point: 35°   Wind: 6mph
Humidity: 69%   Direction: 270°W
Pressure: 29.99"   Gusts: NA
Location:  45.5343°N, 92.8964°W
Report Text: KROS 251315Z AUTO 27005KT 10SM SCT100 07/02 A2999 RMK AO2 T00680015
Loading
Personal Weather Stations






























Interactive Weather Map
Tropical Storm Tracking
New forecast layout! Learn more

10-Day Weather Forecast

Advertisements
Track Severe Weather on mobile